Wiggins, CO (80654)

6:26 PM MDT on July 22, 2017 (GMT -0600)
MCO039 | | Change Station

Elev 4450 ft 40.25 °N, 104.04 °W | Updated 69 days ago

Clear
Clear
83.0 °F
Feels Like 83.0 °F
N
22.0
Wind Variable Wind from SE
Gusts 30.0 mph

Today
High -- | Low -- °F
--% Chance of Precip.
Yesterday
High -- | Low -- °F
Precip. -- in
Pressure 30.11 in
Visibility 10.0 miles
Clouds Clear
Dew Point 30.0 °F
Humidity 15%
Rainfall 0.29 in
Snow Depth Not available.
5:45 AM 8:19 PM
Waning Crescent, 0% visible
METAR KFMM 230015Z AUTO 11014G17KT 10SM CLR 28/06 A3011 RMK AO2 LTG DSNT N T02790059
Pressure 30.11 in
Visibility 10.0 miles
Clouds Clear
Dew Point 30.0 °F
Humidity 15%
Rainfall 0.29 in
Snow Depth Not available.
5:45 AM 8:19 PM
Waning Crescent, 0% visible
METAR KFMM 230015Z AUTO 11014G17KT 10SM CLR 28/06 A3011 RMK AO2 LTG DSNT N T02790059

Get Severe Weather Alerts

Thanks for signing up!

Be on the lookout for a verification email in your inbox.

You'll start receiving the daily forecast at 6 AM.

×

10-Day Weather Forecast

Almanac

Astronomy

Jul. 22, 2017 Rise Set
Actual Time
Civil Twilight
Nautical Twilight
Astronomical Twilight
Moon
Length of Visible Light
Length of Day
Tomorrow will be .
, % of the Moon is Illuminated

Today's Extremes

State Highs State Lows

Community

WunderPhotos

Category 6

Welcome to Category 6. This is the collective home for Weather Underground's featured writeups by Dr. Jeff Masters (right), Bob Henson (left), Chris Burt, and other regular contributors.

Nearby

Air Quality

  Air Quality AQ Index Pollutant
Not available.

Snow Depth

Station Depth Elevation

Earthquake Activity

City Distance Mag. Time & Date
Minimum magnitude displayed is 2.5.

Coastal Water Temperatures

Place Temperature

Stations

Nearby Weather Stations

Station Location Temp. Windchill Dew Point Humidity Wind Precip. Elev Updated Type
                   

Watches & Warnings

There are currently no watches in effect.